LFPM 201730Z AUTO 34007KT 9999 FEW029/// BKN034/// BKN042/// ///CB 20/18 Q1005

Les avions qui composent notre flotte

Avion Robin DR400-100

Avion école

(freins aux palonniers)

F-GGJG
   * tarif promotionnel appliqué pendant la formation des élèves non brevetés


F-GGJG Planche